sensor_id;sensor_type;location;lat;lon;timestamp;P1;durP1;ratioP1;P2;durP2;ratioP2
7479;SDS011;3781;42.272;22.658;2022-08-16T00:00:40;1.87;;;1.67;;
7479;SDS011;3781;42.272;22.658;2022-08-16T00:03:09;2.53;;;2.03;;
7479;SDS011;3781;42.272;22.658;2022-08-16T00:05:36;3.47;;;2.90;;
7479;SDS011;3781;42.272;22.658;2022-08-16T00:08:03;2.17;;;1.97;;
7479;SDS011;3781;42.272;22.658;2022-08-16T00:10:30;2.83;;;2.07;;
7479;SDS011;3781;42.272;22.658;2022-08-16T00:12:58;2.70;;;2.50;;
7479;SDS011;3781;42.272;22.658;2022-08-16T00:15:27;2.47;;;2.27;;
7479;SDS011;3781;42.272;22.658;2022-08-16T00:17:59;2.93;;;2.73;;
7479;SDS011;3781;42.272;22.658;2022-08-16T00:20:26;3.47;;;2.47;;
7479;SDS011;3781;42.272;22.658;2022-08-16T00:22:53;2.33;;;2.17;;
7479;SDS011;3781;42.272;22.658;2022-08-16T00:25:21;1.70;;;1.57;;
7479;SDS011;3781;42.272;22.658;2022-08-16T00:27:49;3.47;;;3.17;;
7479;SDS011;3781;42.272;22.658;2022-08-16T00:30:17;7.67;;;3.33;;
7479;SDS011;3781;42.272;22.658;2022-08-16T00:32:49;2.87;;;2.47;;
7479;SDS011;3781;42.272;22.658;2022-08-16T00:35:20;3.07;;;2.33;;
7479;SDS011;3781;42.272;22.658;2022-08-16T00:37:49;3.60;;;2.27;;
7479;SDS011;3781;42.272;22.658;2022-08-16T00:40:18;3.83;;;2.30;;
7479;SDS011;3781;42.272;22.658;2022-08-16T00:42:47;3.00;;;2.13;;
7479;SDS011;3781;42.272;22.658;2022-08-16T00:45:18;5.73;;;3.13;;
7479;SDS011;3781;42.272;22.658;2022-08-16T00:47:52;3.57;;;3.13;;
7479;SDS011;3781;42.272;22.658;2022-08-16T00:50:25;2.87;;;2.53;;
7479;SDS011;3781;42.272;22.658;2022-08-16T00:52:55;6.33;;;2.90;;
7479;SDS011;3781;42.272;22.658;2022-08-16T00:55:22;3.93;;;2.90;;
7479;SDS011;3781;42.272;22.658;2022-08-16T00:57:51;2.70;;;2.50;;
7479;SDS011;3781;42.272;22.658;2022-08-16T01:00:20;4.67;;;2.93;;
7479;SDS011;3781;42.272;22.658;2022-08-16T01:02:49;2.43;;;2.13;;
7479;SDS011;3781;42.272;22.658;2022-08-16T01:05:16;6.97;;;2.53;;
7479;SDS011;3781;42.272;22.658;2022-08-16T01:07:45;8.40;;;3.47;;
7479;SDS011;3781;42.272;22.658;2022-08-16T01:10:12;3.97;;;2.30;;
7479;SDS011;3781;42.272;22.658;2022-08-16T01:12:38;3.00;;;2.60;;
7479;SDS011;3781;42.272;22.658;2022-08-16T01:15:06;2.40;;;2.07;;
7479;SDS011;3781;42.272;22.658;2022-08-16T01:17:33;2.90;;;2.23;;
7479;SDS011;3781;42.272;22.658;2022-08-16T01:20:01;1.57;;;1.33;;
7479;SDS011;3781;42.272;22.658;2022-08-16T01:22:35;2.93;;;2.40;;
7479;SDS011;3781;42.272;22.658;2022-08-16T01:25:12;3.00;;;2.40;;
7479;SDS011;3781;42.272;22.658;2022-08-16T01:27:42;3.87;;;3.23;;
7479;SDS011;3781;42.272;22.658;2022-08-16T01:30:13;3.83;;;2.97;;
7479;SDS011;3781;42.272;22.658;2022-08-16T01:32:42;1.57;;;1.43;;
7479;SDS011;3781;42.272;22.658;2022-08-16T01:35:10;3.40;;;2.40;;
7479;SDS011;3781;42.272;22.658;2022-08-16T01:37:43;5.47;;;3.07;;
7479;SDS011;3781;42.272;22.658;2022-08-16T01:40:14;4.90;;;2.67;;
7479;SDS011;3781;42.272;22.658;2022-08-16T01:42:43;2.47;;;1.67;;
7479;SDS011;3781;42.272;22.658;2022-08-16T01:45:11;3.33;;;1.93;;
7479;SDS011;3781;42.272;22.658;2022-08-16T01:47:39;6.80;;;2.50;;
7479;SDS011;3781;42.272;22.658;2022-08-16T01:50:08;2.53;;;2.23;;
7479;SDS011;3781;42.272;22.658;2022-08-16T01:52:35;2.20;;;2.00;;
7479;SDS011;3781;42.272;22.658;2022-08-16T01:55:03;2.40;;;2.13;;
7479;SDS011;3781;42.272;22.658;2022-08-16T01:57:32;4.17;;;2.70;;
7479;SDS011;3781;42.272;22.658;2022-08-16T01:59:59;2.23;;;2.03;;
7479;SDS011;3781;42.272;22.658;2022-08-16T02:02:27;3.27;;;2.57;;
7479;SDS011;3781;42.272;22.658;2022-08-16T02:04:54;2.60;;;2.33;;
7479;SDS011;3781;42.272;22.658;2022-08-16T02:07:21;2.30;;;2.10;;
7479;SDS011;3781;42.272;22.658;2022-08-16T02:09:48;4.10;;;2.17;;
7479;SDS011;3781;42.272;22.658;2022-08-16T02:12:14;3.47;;;2.70;;
7479;SDS011;3781;42.272;22.658;2022-08-16T02:14:43;3.77;;;2.67;;
7479;SDS011;3781;42.272;22.658;2022-08-16T02:17:10;2.07;;;1.87;;
7479;SDS011;3781;42.272;22.658;2022-08-16T02:19:38;1.83;;;1.73;;
7479;SDS011;3781;42.272;22.658;2022-08-16T02:22:08;2.90;;;1.87;;
7479;SDS011;3781;42.272;22.658;2022-08-16T02:24:38;2.17;;;1.33;;
7479;SDS011;3781;42.272;22.658;2022-08-16T02:27:06;1.60;;;1.37;;
7479;SDS011;3781;42.272;22.658;2022-08-16T02:29:33;2.03;;;1.93;;
7479;SDS011;3781;42.272;22.658;2022-08-16T02:32:01;3.53;;;2.33;;
7479;SDS011;3781;42.272;22.658;2022-08-16T02:34:28;2.97;;;2.47;;
7479;SDS011;3781;42.272;22.658;2022-08-16T02:36:55;1.53;;;1.43;;
7479;SDS011;3781;42.272;22.658;2022-08-16T02:39:22;4.00;;;2.77;;
7479;SDS011;3781;42.272;22.658;2022-08-16T02:41:50;4.27;;;2.13;;
7479;SDS011;3781;42.272;22.658;2022-08-16T02:44:18;5.67;;;3.07;;
7479;SDS011;3781;42.272;22.658;2022-08-16T02:46:51;4.27;;;2.80;;
7479;SDS011;3781;42.272;22.658;2022-08-16T02:49:19;3.23;;;2.80;;
7479;SDS011;3781;42.272;22.658;2022-08-16T02:51:47;2.50;;;2.07;;
7479;SDS011;3781;42.272;22.658;2022-08-16T02:54:14;1.67;;;1.57;;
7479;SDS011;3781;42.272;22.658;2022-08-16T02:56:40;3.23;;;2.63;;
7479;SDS011;3781;42.272;22.658;2022-08-16T02:59:08;2.50;;;2.30;;
7479;SDS011;3781;42.272;22.658;2022-08-16T03:01:35;4.03;;;1.73;;
7479;SDS011;3781;42.272;22.658;2022-08-16T03:04:03;1.93;;;1.83;;
7479;SDS011;3781;42.272;22.658;2022-08-16T03:06:32;2.60;;;2.20;;
7479;SDS011;3781;42.272;22.658;2022-08-16T03:09:00;3.73;;;2.37;;
7479;SDS011;3781;42.272;22.658;2022-08-16T03:11:27;2.17;;;1.97;;
7479;SDS011;3781;42.272;22.658;2022-08-16T03:13:56;3.40;;;2.20;;
7479;SDS011;3781;42.272;22.658;2022-08-16T03:16:24;3.53;;;2.43;;
7479;SDS011;3781;42.272;22.658;2022-08-16T03:18:52;3.87;;;2.27;;
7479;SDS011;3781;42.272;22.658;2022-08-16T03:21:19;3.90;;;2.50;;
7479;SDS011;3781;42.272;22.658;2022-08-16T03:23:48;6.10;;;2.83;;
7479;SDS011;3781;42.272;22.658;2022-08-16T03:26:15;2.47;;;2.27;;
7479;SDS011;3781;42.272;22.658;2022-08-16T03:28:42;4.00;;;2.73;;
7479;SDS011;3781;42.272;22.658;2022-08-16T03:31:09;2.00;;;1.80;;
7479;SDS011;3781;42.272;22.658;2022-08-16T03:33:36;3.40;;;2.37;;
7479;SDS011;3781;42.272;22.658;2022-08-16T03:36:03;2.43;;;2.23;;
7479;SDS011;3781;42.272;22.658;2022-08-16T03:38:32;4.47;;;2.70;;
7479;SDS011;3781;42.272;22.658;2022-08-16T03:41:01;3.00;;;2.30;;
7479;SDS011;3781;42.272;22.658;2022-08-16T03:43:29;3.77;;;2.87;;
7479;SDS011;3781;42.272;22.658;2022-08-16T03:45:57;4.83;;;2.73;;
7479;SDS011;3781;42.272;22.658;2022-08-16T03:48:26;4.47;;;2.97;;
7479;SDS011;3781;42.272;22.658;2022-08-16T03:50:57;3.17;;;2.87;;
7479;SDS011;3781;42.272;22.658;2022-08-16T03:53:24;2.83;;;2.43;;
7479;SDS011;3781;42.272;22.658;2022-08-16T03:55:51;3.83;;;2.83;;
7479;SDS011;3781;42.272;22.658;2022-08-16T03:58:19;3.00;;;2.40;;
7479;SDS011;3781;42.272;22.658;2022-08-16T04:00:46;3.60;;;2.97;;
7479;SDS011;3781;42.272;22.658;2022-08-16T04:03:14;3.33;;;2.30;;
7479;SDS011;3781;42.272;22.658;2022-08-16T04:05:43;2.30;;;2.17;;
7479;SDS011;3781;42.272;22.658;2022-08-16T04:08:11;3.43;;;3.10;;
7479;SDS011;3781;42.272;22.658;2022-08-16T04:10:38;5.30;;;2.97;;
7479;SDS011;3781;42.272;22.658;2022-08-16T04:13:05;3.13;;;2.67;;
7479;SDS011;3781;42.272;22.658;2022-08-16T04:15:34;2.13;;;2.00;;
7479;SDS011;3781;42.272;22.658;2022-08-16T04:18:02;2.47;;;2.10;;
7479;SDS011;3781;42.272;22.658;2022-08-16T04:20:30;3.63;;;2.40;;
7479;SDS011;3781;42.272;22.658;2022-08-16T04:22:57;2.37;;;2.17;;
7479;SDS011;3781;42.272;22.658;2022-08-16T04:25:24;3.10;;;2.17;;
7479;SDS011;3781;42.272;22.658;2022-08-16T04:27:51;4.13;;;2.87;;
7479;SDS011;3781;42.272;22.658;2022-08-16T04:30:19;3.27;;;1.97;;
7479;SDS011;3781;42.272;22.658;2022-08-16T04:32:48;2.13;;;2.03;;
7479;SDS011;3781;42.272;22.658;2022-08-16T04:35:16;3.97;;;2.97;;
7479;SDS011;3781;42.272;22.658;2022-08-16T04:37:45;8.47;;;3.30;;
7479;SDS011;3781;42.272;22.658;2022-08-16T04:40:13;4.80;;;2.63;;
7479;SDS011;3781;42.272;22.658;2022-08-16T04:42:40;4.23;;;2.27;;
7479;SDS011;3781;42.272;22.658;2022-08-16T04:45:10;7.67;;;3.27;;
7479;SDS011;3781;42.272;22.658;2022-08-16T04:47:39;4.53;;;2.70;;
7479;SDS011;3781;42.272;22.658;2022-08-16T04:50:12;7.23;;;3.57;;
7479;SDS011;3781;42.272;22.658;2022-08-16T04:52:43;3.77;;;2.27;;
7479;SDS011;3781;42.272;22.658;2022-08-16T04:55:15;6.53;;;3.50;;
7479;SDS011;3781;42.272;22.658;2022-08-16T04:57:44;5.27;;;3.27;;
7479;SDS011;3781;42.272;22.658;2022-08-16T05:00:14;9.63;;;4.43;;
7479;SDS011;3781;42.272;22.658;2022-08-16T05:02:43;7.73;;;3.53;;
7479;SDS011;3781;42.272;22.658;2022-08-16T05:05:12;4.70;;;3.60;;
7479;SDS011;3781;42.272;22.658;2022-08-16T05:07:39;5.87;;;4.10;;
7479;SDS011;3781;42.272;22.658;2022-08-16T05:10:07;7.40;;;4.10;;
7479;SDS011;3781;42.272;22.658;2022-08-16T05:12:35;5.63;;;4.07;;
7479;SDS011;3781;42.272;22.658;2022-08-16T05:15:03;7.50;;;4.43;;
7479;SDS011;3781;42.272;22.658;2022-08-16T05:17:30;5.10;;;4.03;;
7479;SDS011;3781;42.272;22.658;2022-08-16T05:19:57;5.43;;;3.67;;
7479;SDS011;3781;42.272;22.658;2022-08-16T05:22:25;7.83;;;3.83;;
7479;SDS011;3781;42.272;22.658;2022-08-16T05:24:54;6.53;;;3.87;;
7479;SDS011;3781;42.272;22.658;2022-08-16T05:27:20;4.47;;;3.53;;
7479;SDS011;3781;42.272;22.658;2022-08-16T05:29:47;7.80;;;4.33;;
7479;SDS011;3781;42.272;22.658;2022-08-16T05:32:14;6.93;;;4.20;;
7479;SDS011;3781;42.272;22.658;2022-08-16T05:34:41;5.63;;;4.13;;
7479;SDS011;3781;42.272;22.658;2022-08-16T05:37:08;6.83;;;4.53;;
7479;SDS011;3781;42.272;22.658;2022-08-16T05:39:36;9.37;;;4.30;;
7479;SDS011;3781;42.272;22.658;2022-08-16T05:42:04;3.93;;;3.43;;
7479;SDS011;3781;42.272;22.658;2022-08-16T05:44:36;5.40;;;3.97;;
7479;SDS011;3781;42.272;22.658;2022-08-16T05:47:03;5.53;;;4.00;;
7479;SDS011;3781;42.272;22.658;2022-08-16T05:49:30;5.13;;;3.53;;
7479;SDS011;3781;42.272;22.658;2022-08-16T05:51:58;5.30;;;3.40;;
7479;SDS011;3781;42.272;22.658;2022-08-16T05:54:25;5.03;;;3.67;;
7479;SDS011;3781;42.272;22.658;2022-08-16T05:56:54;4.72;;;3.58;;
7479;SDS011;3781;42.272;22.658;2022-08-16T05:59:22;4.50;;;4.00;;
7479;SDS011;3781;42.272;22.658;2022-08-16T06:01:50;6.80;;;4.35;;
7479;SDS011;3781;42.272;22.658;2022-08-16T06:04:18;4.68;;;3.17;;
7479;SDS011;3781;42.272;22.658;2022-08-16T06:06:46;5.85;;;4.35;;
7479;SDS011;3781;42.272;22.658;2022-08-16T06:09:13;5.37;;;3.63;;
7479;SDS011;3781;42.272;22.658;2022-08-16T06:11:42;3.80;;;3.07;;
7479;SDS011;3781;42.272;22.658;2022-08-16T06:14:12;5.60;;;3.57;;
7479;SDS011;3781;42.272;22.658;2022-08-16T06:16:38;4.63;;;2.87;;
7479;SDS011;3781;42.272;22.658;2022-08-16T06:19:05;6.67;;;2.97;;
7479;SDS011;3781;42.272;22.658;2022-08-16T06:21:32;5.80;;;3.97;;
7479;SDS011;3781;42.272;22.658;2022-08-16T06:23:59;4.43;;;2.80;;
7479;SDS011;3781;42.272;22.658;2022-08-16T06:26:27;3.13;;;2.50;;
7479;SDS011;3781;42.272;22.658;2022-08-16T06:28:53;6.90;;;3.33;;
7479;SDS011;3781;42.272;22.658;2022-08-16T06:31:22;4.47;;;3.77;;
7479;SDS011;3781;42.272;22.658;2022-08-16T06:33:48;6.27;;;3.83;;
7479;SDS011;3781;42.272;22.658;2022-08-16T06:36:16;7.67;;;3.93;;
7479;SDS011;3781;42.272;22.658;2022-08-16T06:38:43;4.33;;;2.93;;
7479;SDS011;3781;42.272;22.658;2022-08-16T06:41:10;5.10;;;3.47;;
7479;SDS011;3781;42.272;22.658;2022-08-16T06:43:37;6.07;;;3.70;;
7479;SDS011;3781;42.272;22.658;2022-08-16T06:46:05;4.60;;;3.00;;
7479;SDS011;3781;42.272;22.658;2022-08-16T06:48:36;5.53;;;3.53;;
7479;SDS011;3781;42.272;22.658;2022-08-16T06:51:05;6.67;;;2.93;;
7479;SDS011;3781;42.272;22.658;2022-08-16T06:53:33;5.50;;;3.47;;
7479;SDS011;3781;42.272;22.658;2022-08-16T06:56:00;5.60;;;3.23;;
7479;SDS011;3781;42.272;22.658;2022-08-16T06:58:31;4.10;;;2.97;;
7479;SDS011;3781;42.272;22.658;2022-08-16T07:00:58;5.00;;;3.27;;
7479;SDS011;3781;42.272;22.658;2022-08-16T07:03:25;4.97;;;3.27;;
7479;SDS011;3781;42.272;22.658;2022-08-16T07:05:53;4.50;;;3.13;;
7479;SDS011;3781;42.272;22.658;2022-08-16T07:08:21;4.70;;;3.17;;
7479;SDS011;3781;42.272;22.658;2022-08-16T07:10:48;4.53;;;3.30;;
7479;SDS011;3781;42.272;22.658;2022-08-16T07:13:15;5.03;;;3.10;;
7479;SDS011;3781;42.272;22.658;2022-08-16T07:15:42;4.47;;;3.57;;
7479;SDS011;3781;42.272;22.658;2022-08-16T07:18:10;8.37;;;3.00;;
7479;SDS011;3781;42.272;22.658;2022-08-16T07:20:39;9.53;;;3.53;;
7479;SDS011;3781;42.272;22.658;2022-08-16T07:23:09;5.90;;;3.60;;
7479;SDS011;3781;42.272;22.658;2022-08-16T07:25:36;5.27;;;3.43;;
7479;SDS011;3781;42.272;22.658;2022-08-16T07:28:03;4.17;;;3.33;;
7479;SDS011;3781;42.272;22.658;2022-08-16T07:30:30;5.57;;;3.97;;
7479;SDS011;3781;42.272;22.658;2022-08-16T07:32:58;5.77;;;3.10;;
7479;SDS011;3781;42.272;22.658;2022-08-16T07:35:26;4.63;;;2.97;;
7479;SDS011;3781;42.272;22.658;2022-08-16T07:37:53;6.67;;;3.63;;
7479;SDS011;3781;42.272;22.658;2022-08-16T07:40:25;4.33;;;3.87;;
7479;SDS011;3781;42.272;22.658;2022-08-16T07:42:52;6.10;;;3.67;;
7479;SDS011;3781;42.272;22.658;2022-08-16T07:45:19;4.07;;;3.53;;
7479;SDS011;3781;42.272;22.658;2022-08-16T07:47:46;3.43;;;2.70;;
7479;SDS011;3781;42.272;22.658;2022-08-16T07:50:13;4.03;;;3.53;;
7479;SDS011;3781;42.272;22.658;2022-08-16T07:52:41;3.93;;;3.03;;
7479;SDS011;3781;42.272;22.658;2022-08-16T07:55:09;7.07;;;3.63;;
7479;SDS011;3781;42.272;22.658;2022-08-16T07:57:39;6.47;;;3.90;;
7479;SDS011;3781;42.272;22.658;2022-08-16T08:00:08;5.67;;;3.43;;
7479;SDS011;3781;42.272;22.658;2022-08-16T08:02:36;6.73;;;4.17;;
7479;SDS011;3781;42.272;22.658;2022-08-16T08:05:03;6.80;;;4.13;;
7479;SDS011;3781;42.272;22.658;2022-08-16T08:07:36;4.60;;;3.73;;
7479;SDS011;3781;42.272;22.658;2022-08-16T08:10:04;4.40;;;3.50;;
7479;SDS011;3781;42.272;22.658;2022-08-16T08:12:32;5.00;;;3.53;;
7479;SDS011;3781;42.272;22.658;2022-08-16T08:15:00;6.17;;;4.00;;
7479;SDS011;3781;42.272;22.658;2022-08-16T08:17:27;6.63;;;3.67;;
7479;SDS011;3781;42.272;22.658;2022-08-16T08:19:54;6.23;;;3.80;;
7479;SDS011;3781;42.272;22.658;2022-08-16T08:22:21;7.50;;;4.20;;
7479;SDS011;3781;42.272;22.658;2022-08-16T08:24:48;7.10;;;4.27;;
7479;SDS011;3781;42.272;22.658;2022-08-16T08:27:15;8.07;;;4.03;;
7479;SDS011;3781;42.272;22.658;2022-08-16T08:29:43;5.82;;;4.05;;
7479;SDS011;3781;42.272;22.658;2022-08-16T08:32:11;5.07;;;3.83;;
7479;SDS011;3781;42.272;22.658;2022-08-16T08:34:39;4.35;;;3.72;;
7479;SDS011;3781;42.272;22.658;2022-08-16T08:37:06;8.13;;;4.22;;
7479;SDS011;3781;42.272;22.658;2022-08-16T08:39:33;4.07;;;3.65;;
7479;SDS011;3781;42.272;22.658;2022-08-16T08:42:02;6.78;;;4.10;;
7479;SDS011;3781;42.272;22.658;2022-08-16T08:44:30;5.13;;;3.88;;
7479;SDS011;3781;42.272;22.658;2022-08-16T08:46:58;4.60;;;3.95;;
7479;SDS011;3781;42.272;22.658;2022-08-16T08:49:27;5.00;;;3.83;;
7479;SDS011;3781;42.272;22.658;2022-08-16T08:51:54;4.18;;;3.75;;
7479;SDS011;3781;42.272;22.658;2022-08-16T08:54:22;6.80;;;3.80;;
7479;SDS011;3781;42.272;22.658;2022-08-16T08:56:49;6.70;;;4.70;;
7479;SDS011;3781;42.272;22.658;2022-08-16T08:59:16;4.50;;;3.70;;
7479;SDS011;3781;42.272;22.658;2022-08-16T09:01:43;4.40;;;3.97;;
7479;SDS011;3781;42.272;22.658;2022-08-16T09:04:11;6.35;;;4.38;;
7479;SDS011;3781;42.272;22.658;2022-08-16T09:06:40;4.90;;;3.92;;
7479;SDS011;3781;42.272;22.658;2022-08-16T09:09:08;4.07;;;3.60;;
7479;SDS011;3781;42.272;22.658;2022-08-16T09:11:35;5.15;;;4.10;;
7479;SDS011;3781;42.272;22.658;2022-08-16T09:14:02;4.72;;;4.07;;
7479;SDS011;3781;42.272;22.658;2022-08-16T09:16:29;4.25;;;3.85;;
7479;SDS011;3781;42.272;22.658;2022-08-16T09:18:57;4.43;;;4.03;;
7479;SDS011;3781;42.272;22.658;2022-08-16T09:21:24;7.25;;;4.57;;
7479;SDS011;3781;42.272;22.658;2022-08-16T09:23:53;4.90;;;3.55;;
7479;SDS011;3781;42.272;22.658;2022-08-16T09:26:19;4.60;;;3.63;;
7479;SDS011;3781;42.272;22.658;2022-08-16T09:28:48;3.97;;;3.53;;
7479;SDS011;3781;42.272;22.658;2022-08-16T09:31:16;5.18;;;3.55;;
7479;SDS011;3781;42.272;22.658;2022-08-16T09:33:43;3.85;;;3.50;;
7479;SDS011;3781;42.272;22.658;2022-08-16T09:36:12;5.15;;;3.22;;
7479;SDS011;3781;42.272;22.658;2022-08-16T09:38:38;3.70;;;2.88;;
7479;SDS011;3781;42.272;22.658;2022-08-16T09:41:08;6.07;;;3.47;;
7479;SDS011;3781;42.272;22.658;2022-08-16T09:43:36;3.67;;;3.03;;
7479;SDS011;3781;42.272;22.658;2022-08-16T09:46:04;3.88;;;3.45;;
7479;SDS011;3781;42.272;22.658;2022-08-16T09:48:32;3.40;;;3.10;;
7479;SDS011;3781;42.272;22.658;2022-08-16T09:51:00;3.17;;;2.92;;
7479;SDS011;3781;42.272;22.658;2022-08-16T09:53:27;3.55;;;3.25;;
7479;SDS011;3781;42.272;22.658;2022-08-16T09:55:54;3.17;;;2.92;;
7479;SDS011;3781;42.272;22.658;2022-08-16T09:58:24;2.80;;;2.60;;
7479;SDS011;3781;42.272;22.658;2022-08-16T10:00:52;2.63;;;1.75;;
7479;SDS011;3781;42.272;22.658;2022-08-16T10:03:19;1.60;;;1.48;;
7479;SDS011;3781;42.272;22.658;2022-08-16T10:05:47;2.08;;;1.90;;
7479;SDS011;3781;42.272;22.658;2022-08-16T10:08:14;1.48;;;1.33;;
7479;SDS011;3781;42.272;22.658;2022-08-16T10:10:42;1.13;;;1.13;;
7479;SDS011;3781;42.272;22.658;2022-08-16T10:13:32;1.50;;;1.40;;
7479;SDS011;3781;42.272;22.658;2022-08-16T10:15:58;1.40;;;1.33;;
7479;SDS011;3781;42.272;22.658;2022-08-16T10:18:26;1.58;;;1.48;;
7479;SDS011;3781;42.272;22.658;2022-08-16T10:20:54;2.65;;;1.77;;
7479;SDS011;3781;42.272;22.658;2022-08-16T10:23:22;2.40;;;2.20;;
7479;SDS011;3781;42.272;22.658;2022-08-16T10:25:50;2.13;;;1.85;;
7479;SDS011;3781;42.272;22.658;2022-08-16T10:28:17;1.58;;;1.48;;
7479;SDS011;3781;42.272;22.658;2022-08-16T10:30:45;1.85;;;1.40;;
7479;SDS011;3781;42.272;22.658;2022-08-16T10:33:12;1.38;;;1.25;;
7479;SDS011;3781;42.272;22.658;2022-08-16T10:35:40;1.05;;;0.95;;
7479;SDS011;3781;42.272;22.658;2022-08-16T10:38:08;4.90;;;1.20;;
7479;SDS011;3781;42.272;22.658;2022-08-16T10:40:35;1.70;;;1.60;;
7479;SDS011;3781;42.272;22.658;2022-08-16T10:43:01;1.33;;;1.23;;
7479;SDS011;3781;42.272;22.658;2022-08-16T10:45:29;2.38;;;1.42;;
7479;SDS011;3781;42.272;22.658;2022-08-16T10:47:57;1.75;;;1.45;;
7479;SDS011;3781;42.272;22.658;2022-08-16T10:50:25;1.40;;;1.30;;
7479;SDS011;3781;42.272;22.658;2022-08-16T10:52:53;1.58;;;1.42;;
7479;SDS011;3781;42.272;22.658;2022-08-16T10:55:20;1.10;;;1.10;;
7479;SDS011;3781;42.272;22.658;2022-08-16T10:57:47;1.05;;;1.05;;
7479;SDS011;3781;42.272;22.658;2022-08-16T11:00:16;3.33;;;1.88;;
7479;SDS011;3781;42.272;22.658;2022-08-16T11:02:43;2.15;;;1.50;;
7479;SDS011;3781;42.272;22.658;2022-08-16T11:05:13;2.88;;;1.92;;
7479;SDS011;3781;42.272;22.658;2022-08-16T11:07:42;1.55;;;1.45;;
7479;SDS011;3781;42.272;22.658;2022-08-16T11:10:11;2.45;;;1.10;;
7479;SDS011;3781;42.272;22.658;2022-08-16T11:12:39;1.73;;;1.63;;
7479;SDS011;3781;42.272;22.658;2022-08-16T11:15:06;1.60;;;1.50;;
7479;SDS011;3781;42.272;22.658;2022-08-16T11:17:34;2.03;;;1.83;;
7479;SDS011;3781;42.272;22.658;2022-08-16T11:20:04;1.73;;;1.63;;
7479;SDS011;3781;42.272;22.658;2022-08-16T11:22:36;1.10;;;1.05;;
7479;SDS011;3781;42.272;22.658;2022-08-16T11:25:03;2.17;;;1.15;;
7479;SDS011;3781;42.272;22.658;2022-08-16T11:27:30;1.20;;;1.10;;
7479;SDS011;3781;42.272;22.658;2022-08-16T11:29:57;1.40;;;1.30;;
7479;SDS011;3781;42.272;22.658;2022-08-16T11:32:25;2.63;;;1.33;;
7479;SDS011;3781;42.272;22.658;2022-08-16T11:34:54;1.40;;;0.95;;
7479;SDS011;3781;42.272;22.658;2022-08-16T11:37:21;1.48;;;1.38;;
7479;SDS011;3781;42.272;22.658;2022-08-16T11:39:49;1.30;;;1.23;;
7479;SDS011;3781;42.272;22.658;2022-08-16T11:42:16;2.10;;;1.60;;
7479;SDS011;3781;42.272;22.658;2022-08-16T11:44:43;2.10;;;1.33;;
7479;SDS011;3781;42.272;22.658;2022-08-16T11:47:10;2.33;;;0.88;;
7479;SDS011;3781;42.272;22.658;2022-08-16T11:49:37;1.35;;;1.25;;
7479;SDS011;3781;42.272;22.658;2022-08-16T11:52:04;1.40;;;1.30;;
7479;SDS011;3781;42.272;22.658;2022-08-16T11:54:31;1.42;;;1.25;;
7479;SDS011;3781;42.272;22.658;2022-08-16T11:56:59;1.02;;;0.88;;
7479;SDS011;3781;42.272;22.658;2022-08-16T11:59:26;4.43;;;1.40;;
7479;SDS011;3781;42.272;22.658;2022-08-16T12:01:53;0.95;;;0.95;;
7479;SDS011;3781;42.272;22.658;2022-08-16T12:04:20;1.73;;;1.42;;
7479;SDS011;3781;42.272;22.658;2022-08-16T12:06:47;0.90;;;0.85;;
7479;SDS011;3781;42.272;22.658;2022-08-16T12:09:14;1.90;;;1.17;;
7479;SDS011;3781;42.272;22.658;2022-08-16T12:11:41;1.77;;;1.27;;
7479;SDS011;3781;42.272;22.658;2022-08-16T12:14:10;6.32;;;1.60;;
7479;SDS011;3781;42.272;22.658;2022-08-16T12:16:37;1.92;;;1.33;;
7479;SDS011;3781;42.272;22.658;2022-08-16T12:19:04;1.52;;;1.42;;
7479;SDS011;3781;42.272;22.658;2022-08-16T12:21:34;1.60;;;1.23;;
7479;SDS011;3781;42.272;22.658;2022-08-16T12:24:02;1.50;;;1.27;;
7479;SDS011;3781;42.272;22.658;2022-08-16T12:26:30;2.45;;;1.55;;
7479;SDS011;3781;42.272;22.658;2022-08-16T12:28:57;1.10;;;1.00;;
7479;SDS011;3781;42.272;22.658;2022-08-16T12:31:27;1.42;;;1.33;;
7479;SDS011;3781;42.272;22.658;2022-08-16T12:33:54;2.05;;;1.58;;
7479;SDS011;3781;42.272;22.658;2022-08-16T12:36:21;1.50;;;1.40;;
7479;SDS011;3781;42.272;22.658;2022-08-16T12:38:48;2.67;;;1.50;;
7479;SDS011;3781;42.272;22.658;2022-08-16T12:41:15;1.85;;;1.40;;
7479;SDS011;3781;42.272;22.658;2022-08-16T12:43:42;1.15;;;1.05;;
7479;SDS011;3781;42.272;22.658;2022-08-16T12:46:09;1.67;;;1.58;;
7479;SDS011;3781;42.272;22.658;2022-08-16T12:48:38;1.90;;;1.77;;
7479;SDS011;3781;42.272;22.658;2022-08-16T12:51:23;0.93;;;0.93;;
7479;SDS011;3781;42.272;22.658;2022-08-16T12:53:53;2.20;;;1.58;;
7479;SDS011;3781;42.272;22.658;2022-08-16T12:56:22;1.75;;;1.65;;
7479;SDS011;3781;42.272;22.658;2022-08-16T12:58:51;1.60;;;1.50;;
7479;SDS011;3781;42.272;22.658;2022-08-16T13:01:19;2.65;;;2.20;;
7479;SDS011;3781;42.272;22.658;2022-08-16T13:03:51;1.65;;;1.50;;
7479;SDS011;3781;42.272;22.658;2022-08-16T13:06:19;1.40;;;1.30;;
7479;SDS011;3781;42.272;22.658;2022-08-16T13:08:47;1.70;;;1.05;;
7479;SDS011;3781;42.272;22.658;2022-08-16T13:11:15;1.70;;;1.60;;
7479;SDS011;3781;42.272;22.658;2022-08-16T13:13:45;1.17;;;1.08;;
7479;SDS011;3781;42.272;22.658;2022-08-16T13:16:13;3.53;;;1.67;;
7479;SDS011;3781;42.272;22.658;2022-08-16T13:18:40;3.17;;;1.85;;
7479;SDS011;3781;42.272;22.658;2022-08-16T13:21:08;2.17;;;1.70;;
7479;SDS011;3781;42.272;22.658;2022-08-16T13:23:35;2.40;;;1.75;;
7479;SDS011;3781;42.272;22.658;2022-08-16T13:26:03;4.03;;;1.60;;
7479;SDS011;3781;42.272;22.658;2022-08-16T13:28:31;1.90;;;1.40;;
7479;SDS011;3781;42.272;22.658;2022-08-16T13:31:00;2.40;;;1.33;;
7479;SDS011;3781;42.272;22.658;2022-08-16T13:33:28;1.70;;;1.60;;
7479;SDS011;3781;42.272;22.658;2022-08-16T13:36:01;1.38;;;1.10;;
7479;SDS011;3781;42.272;22.658;2022-08-16T13:38:32;1.67;;;0.90;;
7479;SDS011;3781;42.272;22.658;2022-08-16T13:41:00;2.92;;;1.83;;
7479;SDS011;3781;42.272;22.658;2022-08-16T13:43:27;1.38;;;1.15;;
7479;SDS011;3781;42.272;22.658;2022-08-16T13:45:56;2.25;;;1.27;;
7479;SDS011;3781;42.272;22.658;2022-08-16T13:48:25;2.22;;;1.88;;
7479;SDS011;3781;42.272;22.658;2022-08-16T13:50:52;4.25;;;2.20;;
7479;SDS011;3781;42.272;22.658;2022-08-16T13:53:20;3.58;;;2.75;;
7479;SDS011;3781;42.272;22.658;2022-08-16T13:55:49;1.85;;;1.70;;
7479;SDS011;3781;42.272;22.658;2022-08-16T13:58:15;2.30;;;2.10;;
7479;SDS011;3781;42.272;22.658;2022-08-16T14:00:42;2.53;;;2.33;;
7479;SDS011;3781;42.272;22.658;2022-08-16T14:03:09;3.22;;;2.25;;
7479;SDS011;3781;42.272;22.658;2022-08-16T14:05:36;2.00;;;1.83;;
7479;SDS011;3781;42.272;22.658;2022-08-16T14:08:03;1.80;;;1.38;;
7479;SDS011;3781;42.272;22.658;2022-08-16T14:10:30;2.20;;;1.63;;
7479;SDS011;3781;42.272;22.658;2022-08-16T14:12:58;2.10;;;1.77;;
7479;SDS011;3781;42.272;22.658;2022-08-16T14:15:26;1.48;;;1.25;;
7479;SDS011;3781;42.272;22.658;2022-08-16T14:17:53;2.03;;;1.38;;
7479;SDS011;3781;42.272;22.658;2022-08-16T14:20:19;1.58;;;1.48;;
7479;SDS011;3781;42.272;22.658;2022-08-16T14:22:46;1.40;;;1.30;;
7479;SDS011;3781;42.272;22.658;2022-08-16T14:25:15;1.58;;;1.48;;
7479;SDS011;3781;42.272;22.658;2022-08-16T14:27:44;2.55;;;1.48;;
7479;SDS011;3781;42.272;22.658;2022-08-16T14:30:14;1.52;;;1.25;;
7479;SDS011;3781;42.272;22.658;2022-08-16T14:32:43;1.83;;;1.70;;
7479;SDS011;3781;42.272;22.658;2022-08-16T14:35:11;1.65;;;1.42;;
7479;SDS011;3781;42.272;22.658;2022-08-16T14:37:39;1.80;;;1.70;;
7479;SDS011;3781;42.272;22.658;2022-08-16T14:40:08;3.13;;;1.73;;
7479;SDS011;3781;42.272;22.658;2022-08-16T14:42:43;2.33;;;2.13;;
7479;SDS011;3781;42.272;22.658;2022-08-16T14:45:12;1.40;;;1.35;;
7479;SDS011;3781;42.272;22.658;2022-08-16T14:47:41;5.13;;;2.10;;
7479;SDS011;3781;42.272;22.658;2022-08-16T14:50:09;1.15;;;1.10;;
7479;SDS011;3781;42.272;22.658;2022-08-16T14:52:38;1.83;;;1.73;;
7479;SDS011;3781;42.272;22.658;2022-08-16T14:55:06;2.15;;;1.83;;
7479;SDS011;3781;42.272;22.658;2022-08-16T14:57:34;4.22;;;1.77;;
7479;SDS011;3781;42.272;22.658;2022-08-16T15:00:05;4.07;;;2.30;;
7479;SDS011;3781;42.272;22.658;2022-08-16T15:02:37;2.35;;;1.80;;
7479;SDS011;3781;42.272;22.658;2022-08-16T15:05:05;4.45;;;1.92;;